Time;durP1;ratioP1;P1;durP2;ratioP2;P2;SDS_P1;SDS_P2;PMS_P1;PMS_P2;Temp;Humidity;BMP_temperature;BMP_pressure;BME280_temperature;BME280_humidity;BME280_pressure;Samples;Min_cycle;Max_cycle;Signal;HPM_P1;HPM_P2
2021/11/12 00:14:49;;;;;;;32.10;15.65;;;11.50;99.90;;;;;;5093253;28;20025;-65
2021/11/12 00:17:20;;;;;;;27.63;16.15;;;11.50;99.90;;;;;;5074594;28;20035;-65
2021/11/12 00:19:46;;;;;;;28.13;15.75;;;11.50;99.90;;;;;;5091825;28;20027;-69
2021/11/12 00:22:12;;;;;;;27.70;14.73;;;11.50;99.90;;;;;;5091544;28;20497;-66
2021/11/12 00:24:38;;;;;;;27.17;15.20;;;11.50;99.90;;;;;;5074643;28;20086;-67
2021/11/12 00:27:06;;;;;;;31.90;15.70;;;11.50;99.90;;;;;;5091631;28;20060;-65
2021/11/12 00:29:37;;;;;;;27.25;15.02;;;11.50;99.90;;;;;;5091710;28;20020;-69
2021/11/12 00:32:19;;;;;;;30.63;15.65;;;11.40;99.90;;;;;;5092020;28;20028;-64
2021/11/12 00:35:00;;;;;;;27.10;14.77;;;11.40;99.90;;;;;;5092919;28;20379;-67
2021/11/12 00:40:18;;;;;;;28.47;16.47;;;11.40;99.90;;;;;;5092038;28;20123;-65
2021/11/12 00:43:03;;;;;;;23.40;14.27;;;11.30;99.90;;;;;;5092272;28;20028;-73
2021/11/12 00:45:31;;;;;;;25.85;14.98;;;11.30;99.90;;;;;;5091985;28;20028;-74
2021/11/12 00:48:09;;;;;;;25.95;15.52;;;11.40;99.90;;;;;;5075308;28;20024;-75
2021/11/12 00:55:41;;;;;;;29.52;15.35;;;11.50;99.90;;;;;;5096611;28;20029;-74
2021/11/12 00:58:13;;;;;;;28.60;15.55;;;11.40;99.90;;;;;;5097373;28;20021;-72
2021/11/12 01:00:40;;;;;;;23.75;14.18;;;11.40;99.90;;;;;;5097255;28;20079;-73
2021/11/12 01:03:05;;;;;;;25.15;14.63;;;11.40;99.90;;;;;;5077469;28;20039;-74
2021/11/12 01:05:31;;;;;;;29.98;15.38;;;11.40;99.90;;;;;;5078637;28;20020;-74
2021/11/12 01:07:59;;;;;;;32.85;16.45;;;11.40;99.90;;;;;;5092895;28;20028;-74
2021/11/12 01:10:26;;;;;;;26.67;15.70;;;11.40;99.90;;;;;;5058268;28;20039;-66
2021/11/12 01:12:51;;;;;;;27.95;14.23;;;11.40;99.90;;;;;;5091323;28;20059;-67
2021/11/12 01:15:19;;;;;;;26.00;14.20;;;11.40;99.90;;;;;;5091387;28;20048;-64
2021/11/12 01:17:45;;;;;;;27.85;16.92;;;11.40;99.90;;;;;;5092585;28;20107;-66
2021/11/12 01:20:14;;;;;;;28.15;14.73;;;11.50;99.90;;;;;;5074090;28;20119;-64
2021/11/12 01:22:40;;;;;;;24.35;15.45;;;11.40;99.90;;;;;;5074459;28;20020;-64
2021/11/12 01:25:10;;;;;;;25.52;15.27;;;11.40;99.90;;;;;;5091032;28;20052;-66
2021/11/12 01:27:36;;;;;;;28.98;14.48;;;11.40;99.90;;;;;;5074669;28;20036;-66
2021/11/12 01:30:02;;;;;;;32.13;15.80;;;11.30;99.90;;;;;;5094871;28;20031;-66
2021/11/12 01:32:27;;;;;;;30.25;14.75;;;11.20;99.90;;;;;;5077954;28;20061;-64
2021/11/12 01:34:56;;;;;;;34.00;16.42;;;11.10;99.90;;;;;;5077947;28;20135;-66
2021/11/12 01:37:24;;;;;;;30.98;16.77;;;11.20;99.90;;;;;;5094889;28;20104;-74
2021/11/12 01:39:53;;;;;;;29.55;16.00;;;11.20;99.90;;;;;;5078230;28;20028;-74
2021/11/12 01:42:21;;;;;;;34.55;14.90;;;11.20;99.90;;;;;;5095028;28;20032;-75
2021/11/12 01:44:52;;;;;;;32.40;16.13;;;11.20;99.90;;;;;;5095806;28;20031;-74
2021/11/12 01:47:25;;;;;;;28.70;15.70;;;11.20;99.90;;;;;;5078279;28;20391;-74
2021/11/12 01:49:52;;;;;;;32.42;16.48;;;11.20;99.90;;;;;;5094851;28;20043;-75
2021/11/12 01:52:23;;;;;;;38.95;15.98;;;11.20;99.90;;;;;;5061732;28;20024;-74
2021/11/12 01:55:05;;;;;;;33.78;17.63;;;11.10;99.90;;;;;;5062143;28;20111;-74
2021/11/12 02:00:18;;;;;;;34.08;17.58;;;11.10;99.90;;;;;;5094702;28;20125;-75
2021/11/12 02:02:44;;;;;;;37.00;16.95;;;11.10;99.90;;;;;;5094511;28;20016;-74
2021/11/12 02:05:11;;;;;;;37.38;17.08;;;11.20;99.90;;;;;;5094736;28;20020;-75
2021/11/12 02:07:38;;;;;;;37.20;16.73;;;11.20;99.90;;;;;;5094301;28;20123;-75
2021/11/12 02:10:12;;;;;;;35.92;16.90;;;11.20;99.90;;;;;;5094134;28;20020;-72
2021/11/12 02:12:50;;;;;;;;;;;11.20;99.90;;;;;;5094370;28;20389;-76
2021/11/12 02:15:16;;;;;;;41.63;17.23;;;11.20;99.90;;;;;;5079139;28;20262;-76
2021/11/12 02:17:46;;;;;;;33.53;14.75;;;11.20;99.90;;;;;;5094245;28;20039;-74
2021/11/12 02:20:23;;;;;;;32.50;16.02;;;11.20;99.90;;;;;;5094202;28;20024;-74
2021/11/12 02:22:53;;;;;;;35.97;15.25;;;11.20;99.90;;;;;;5094379;28;20024;-74
2021/11/12 02:25:28;;;;;;;35.55;15.95;;;11.10;99.90;;;;;;5077589;28;20067;-65
2021/11/12 02:28:04;;;;;;;;;;;11.10;99.90;;;;;;5078461;28;20036;-65
2021/11/12 02:30:32;;;;;;;31.73;14.32;;;11.10;99.90;;;;;;5093649;28;19904;-67
2021/11/12 02:33:19;;;;;;;35.00;16.00;;;11.10;99.90;;;;;;5093426;28;20032;-66
2021/11/12 02:36:09;;;;;;;34.58;17.08;;;11.00;99.90;;;;;;5092609;28;20042;-65
2021/11/12 02:38:38;;;;;;;32.20;15.77;;;11.00;99.90;;;;;;5081459;28;20028;-66
2021/11/12 02:41:05;;;;;;;29.80;15.10;;;10.90;99.90;;;;;;5076995;28;20025;-67
2021/11/12 02:43:32;;;;;;;33.70;16.05;;;10.90;99.90;;;;;;5094713;28;20024;-67
2021/11/12 02:46:01;;;;;;;29.27;15.18;;;11.00;99.90;;;;;;5093413;28;20375;-66
2021/11/12 02:48:28;;;;;;;31.65;15.65;;;11.00;99.90;;;;;;5093506;28;20475;-66
2021/11/12 02:50:55;;;;;;;31.83;15.82;;;11.00;99.90;;;;;;5076223;28;20028;-67
2021/11/12 02:53:21;;;;;;;30.60;15.85;;;11.00;99.90;;;;;;5076339;28;20023;-66
2021/11/12 02:55:47;;;;;;;30.48;16.90;;;10.90;99.90;;;;;;5093139;28;20172;-66
2021/11/12 02:58:14;;;;;;;36.60;17.75;;;10.80;99.90;;;;;;5076338;28;20145;-73
2021/11/12 03:00:41;;;;;;;27.95;17.13;;;10.80;99.90;;;;;;5093157;28;20101;-73
2021/11/12 03:03:07;;;;;;;32.45;16.88;;;10.70;99.90;;;;;;5076464;28;20032;-74
2021/11/12 03:05:33;;;;;;;27.13;15.20;;;10.60;99.90;;;;;;5076019;28;20024;-74
2021/11/12 03:08:00;;;;;;;31.13;16.77;;;10.60;99.90;;;;;;5092805;28;20039;-73
2021/11/12 03:10:25;;;;;;;33.92;16.40;;;10.60;99.90;;;;;;5076324;28;20127;-72
2021/11/12 03:12:52;;;;;;;35.10;17.60;;;10.60;99.90;;;;;;5092741;28;20554;-71
2021/11/12 03:15:18;;;;;;;25.85;15.85;;;10.70;99.90;;;;;;5076216;28;20411;-74
2021/11/12 03:17:47;;;;;;;28.35;15.45;;;10.60;99.90;;;;;;5075951;28;20054;-73
2021/11/12 03:20:14;;;;;;;27.45;16.38;;;10.60;99.90;;;;;;5075685;28;20070;-73
2021/11/12 03:22:47;;;;;;;31.23;15.95;;;10.40;99.90;;;;;;5075738;28;20375;-71
2021/11/12 03:25:40;;;;;;;30.55;15.65;;;10.50;99.90;;;;;;5060694;28;20135;-71
2021/11/12 03:50:12;;;;;;;27.35;14.18;;;10.20;99.90;;;;;;5094258;28;20032;-75
2021/11/12 04:03:16;;;;;;;27.25;13.85;;;9.90;99.90;;;;;;5092529;28;20028;-74
2021/11/12 04:20:13;;;;;;;28.50;14.50;;;9.70;99.90;;;;;;5092192;28;20036;-65
2021/11/12 04:49:51;;;;;;;26.02;14.55;;;9.80;99.90;;;;;;5092121;28;20265;-67
2021/11/12 05:09:47;;;;;;;32.20;17.58;;;9.70;99.90;;;;;;5095877;28;20074;-64
2021/11/12 05:44:06;;;;;;;43.60;22.45;;;9.40;99.90;;;;;;5080835;28;20070;-66
2021/11/12 05:57:13;;;;;;;35.90;21.17;;;9.30;99.90;;;;;;5094704;28;20047;-71
2021/11/12 05:59:39;;;;;;;50.42;23.40;;;9.20;99.90;;;;;;5094627;28;20095;-73
2021/11/12 06:02:05;;;;;;;45.53;22.65;;;9.10;99.90;;;;;;5094277;28;20459;-72
2021/11/12 06:04:31;;;;;;;41.63;21.45;;;9.10;99.90;;;;;;5060939;28;20425;-73
2021/11/12 06:06:57;;;;;;;44.03;22.40;;;9.10;99.90;;;;;;5077608;28;20478;-73
2021/11/12 06:09:23;;;;;;;40.58;22.35;;;9.00;99.90;;;;;;5094776;28;20028;-74
2021/11/12 06:11:52;;;;;;;52.85;24.23;;;9.00;99.90;;;;;;5094375;28;20085;-71
2021/11/12 06:14:18;;;;;;;52.20;23.23;;;8.80;99.90;;;;;;5077217;28;20061;-73
2021/11/12 06:16:44;;;;;;;44.22;22.70;;;8.70;99.90;;;;;;5077311;28;20020;-73
2021/11/12 06:19:09;;;;;;;48.75;25.52;;;8.60;99.90;;;;;;5094405;28;20046;-74
2021/11/12 06:21:35;;;;;;;50.03;25.35;;;8.50;99.90;;;;;;5094051;28;20039;-73
2021/11/12 06:24:01;;;;;;;51.22;27.00;;;8.40;99.90;;;;;;5077225;28;20391;-74
2021/11/12 06:26:27;;;;;;;54.17;25.60;;;8.30;99.90;;;;;;5076897;28;20048;-76
2021/11/12 06:28:55;;;;;;;58.90;27.65;;;8.20;99.90;;;;;;5094291;28;20029;-76
2021/11/12 06:31:21;;;;;;;55.63;26.23;;;8.10;99.90;;;;;;5093577;28;20028;-68
2021/11/12 06:33:51;;;;;;;59.38;29.95;;;8.00;99.90;;;;;;5093729;28;20016;-70
2021/11/12 06:36:18;;;;;;;53.28;26.52;;;8.00;99.90;;;;;;5076485;28;20027;-66
2021/11/12 06:38:44;;;;;;;48.90;27.63;;;7.90;99.90;;;;;;5093787;28;20120;-69
2021/11/12 06:41:13;;;;;;;55.60;27.13;;;7.80;99.90;;;;;;5093502;28;20493;-69
2021/11/12 06:43:48;;;;;;;55.72;27.23;;;7.70;99.90;;;;;;5093501;28;20024;-69
2021/11/12 06:52:02;;;;;;;59.28;28.88;;;7.50;99.90;;;;;;5009822;28;20041;-66
2021/11/12 06:54:28;;;;;;;55.38;26.90;;;7.40;99.90;;;;;;5015777;28;20040;-67
2021/11/12 06:56:54;;;;;;;57.28;28.80;;;7.40;99.90;;;;;;5044468;28;20043;-70
2021/11/12 06:59:20;;;;;;;59.85;27.98;;;7.30;99.90;;;;;;5076243;28;20360;-68
2021/11/12 07:01:47;;;;;;;66.03;28.20;;;7.30;99.90;;;;;;5076158;28;20030;-64
2021/11/12 07:04:13;;;;;;;59.42;28.58;;;7.20;99.90;;;;;;5094611;28;20070;-62
2021/11/12 07:06:39;;;;;;;57.35;29.15;;;7.20;99.90;;;;;;5093015;28;20071;-68
2021/11/12 07:09:07;;;;;;;62.10;27.40;;;7.20;99.90;;;;;;5099264;28;20028;-77
2021/11/12 07:11:33;;;;;;;63.28;27.83;;;7.30;99.90;;;;;;5077693;28;20364;-78
2021/11/12 07:13:59;;;;;;;61.55;31.02;;;7.30;99.90;;;;;;5077121;28;20028;-73
2021/11/12 07:16:25;;;;;;;52.17;26.40;;;7.20;99.90;;;;;;5076918;28;20032;-74
2021/11/12 07:18:54;;;;;;;62.97;27.38;;;7.10;99.90;;;;;;5093394;28;20020;-73
2021/11/12 07:21:22;;;;;;;62.70;27.85;;;7.10;99.90;;;;;;5094050;28;20020;-74
2021/11/12 07:23:47;;;;;;;56.60;27.58;;;7.00;99.90;;;;;;5092966;28;20041;-72
2021/11/12 07:26:13;;;;;;;56.65;27.58;;;7.00;99.90;;;;;;5091510;28;20131;-72
2021/11/12 07:28:40;;;;;;;62.03;27.98;;;7.10;99.90;;;;;;5093691;28;20164;-70
2021/11/12 07:31:06;;;;;;;56.83;27.02;;;7.00;99.90;;;;;;5093190;28;20177;-73
2021/11/12 07:33:31;;;;;;;61.17;29.02;;;7.00;99.90;;;;;;5094357;28;20024;-75
2021/11/12 07:36:20;;;;;;;56.67;27.52;;;7.00;99.90;;;;;;5077645;28;20055;-74
2021/11/12 07:38:52;;;;;;;53.13;25.88;;;7.20;99.90;;;;;;5092941;28;20032;-78
2021/11/12 07:41:27;;;;;;;;;;;7.30;99.90;;;;;;5096835;28;20024;-72
2021/11/12 07:46:42;;;;;;;59.78;26.35;;;7.40;99.90;;;;;;5095681;28;20044;-71
2021/11/12 07:49:13;;;;;;;54.47;26.55;;;7.40;99.90;;;;;;5092630;28;20082;-69
2021/11/12 07:51:41;;;;;;;50.33;25.38;;;7.60;99.90;;;;;;5093552;28;20023;-65
2021/11/12 07:54:07;;;;;;;55.40;26.17;;;7.70;99.90;;;;;;5092738;28;20453;-64
2021/11/12 07:56:33;;;;;;;50.35;25.48;;;7.90;99.90;;;;;;5092407;28;20020;-66
2021/11/12 07:58:58;;;;;;;46.55;24.90;;;8.10;99.90;;;;;;5091923;28;20119;-67
2021/11/12 08:01:25;;;;;;;51.65;26.77;;;8.30;99.90;;;;;;5092082;28;20024;-66
2021/11/12 08:03:54;;;;;;;50.45;27.08;;;8.60;99.90;;;;;;5075232;28;20040;-65
2021/11/12 08:06:20;;;;;;;46.60;24.13;;;8.90;99.90;;;;;;5091944;28;20035;-64
2021/11/12 08:09:03;;;;;;;47.97;24.42;;;9.00;99.90;;;;;;5075411;28;20053;-66
2021/11/12 08:11:33;;;;;;;54.92;23.27;;;9.10;99.90;;;;;;5092436;28;20073;-69
2021/11/12 08:14:25;;;;;;;59.17;24.88;;;9.20;99.90;;;;;;5076550;28;20515;-69
2021/11/12 08:24:17;;;;;;;50.38;24.38;;;9.70;99.90;;;;;;5092620;28;20028;-71
2021/11/12 08:27:01;;;;;;;44.65;22.85;;;9.80;99.90;;;;;;5093052;28;20166;-69
2021/11/12 08:37:15;;;;;;;43.55;21.83;;;9.70;99.90;;;;;;5096153;28;20036;-77
2021/11/12 08:42:23;;;;;;;43.88;20.33;;;10.20;99.90;;;;;;5098052;28;20035;-72
2021/11/12 08:47:32;;;;;;;44.47;21.75;;;10.90;99.90;;;;;;5097445;28;20047;-72
2021/11/12 08:50:00;;;;;;;38.47;20.63;;;11.20;99.90;;;;;;5098223;28;20020;-73
2021/11/12 08:52:25;;;;;;;38.42;19.30;;;11.60;99.90;;;;;;5098895;28;20024;-76
2021/11/12 08:54:51;;;;;;;43.28;21.58;;;11.90;99.90;;;;;;5105916;28;20028;-71
2021/11/12 08:57:19;;;;;;;37.15;20.35;;;12.20;99.90;;;;;;5105197;28;20520;-74
2021/11/12 08:59:47;;;;;;;34.20;19.27;;;12.30;99.90;;;;;;5099239;28;20023;-71
2021/11/12 09:02:18;;;;;;;37.45;20.83;;;12.40;99.90;;;;;;5101232;28;20028;-74
2021/11/12 09:04:44;;;;;;;41.58;20.58;;;12.70;99.90;;;;;;5098540;28;20382;-71
2021/11/12 09:07:11;;;;;;;41.53;23.60;;;13.00;99.90;;;;;;5079795;28;20077;-69
2021/11/12 09:09:37;;;;;;;35.72;20.38;;;12.90;99.90;;;;;;5101457;28;20052;-73
2021/11/12 09:12:05;;;;;;;42.45;21.88;;;12.70;99.90;;;;;;5097813;28;20066;-72
2021/11/12 09:14:32;;;;;;;42.72;22.60;;;12.40;99.90;;;;;;5079399;28;20494;-74
2021/11/12 09:17:04;;;;;;;44.45;22.00;;;12.20;99.90;;;;;;5096639;28;20035;-74
2021/11/12 09:19:40;;;;;;;40.78;22.42;;;12.30;99.90;;;;;;5096888;28;20120;-74
2021/11/12 09:22:05;;;;;;;45.08;23.67;;;12.30;99.90;;;;;;5097318;28;20035;-76
2021/11/12 09:24:31;;;;;;;48.72;25.30;;;12.10;99.90;;;;;;5095676;28;20012;-64
2021/11/12 09:26:57;;;;;;;51.60;25.35;;;12.00;99.90;;;;;;5095073;28;20131;-65
2021/11/12 09:29:22;;;;;;;53.25;24.48;;;11.80;99.90;;;;;;5095216;28;20028;-69
2021/11/12 09:31:50;;;;;;;48.55;24.27;;;11.60;99.90;;;;;;5095422;28;20380;-68
2021/11/12 09:34:16;;;;;;;58.13;26.48;;;11.20;99.90;;;;;;5078833;28;20016;-67
2021/11/12 09:36:42;;;;;;;57.05;27.35;;;10.90;99.90;;;;;;5095673;28;20036;-70
2021/11/12 09:39:08;;;;;;;48.30;23.58;;;10.60;99.90;;;;;;5095244;28;20017;-66
2021/11/12 09:41:34;;;;;;;50.47;25.73;;;10.30;99.90;;;;;;5095128;28;20058;-67
2021/11/12 09:44:02;;;;;;;51.72;25.38;;;10.00;99.90;;;;;;5078092;28;20427;-68
2021/11/12 09:46:30;;;;;;;66.10;27.23;;;9.80;99.90;;;;;;5078176;28;20040;-68
2021/11/12 09:48:59;;;;;;;53.03;24.33;;;9.70;99.90;;;;;;5060412;28;20024;-72
2021/11/12 09:51:25;;;;;;;56.80;27.75;;;9.60;99.90;;;;;;5095017;28;20031;-68
2021/11/12 09:53:51;;;;;;;57.92;25.98;;;9.40;99.90;;;;;;5094954;28;20386;-67
2021/11/12 09:56:16;;;;;;;62.28;27.52;;;9.40;99.90;;;;;;5095230;28;20043;-71
2021/11/12 09:58:47;;;;;;;54.67;26.98;;;9.40;99.90;;;;;;5078191;28;20024;-71
2021/11/12 10:01:12;;;;;;;54.58;27.83;;;9.30;99.90;;;;;;5098157;28;20047;-74
2021/11/12 10:03:45;;;;;;;61.70;27.17;;;9.30;99.90;;;;;;5099339;28;20471;-73
2021/11/12 10:06:19;;;;;;;66.05;28.67;;;9.10;99.90;;;;;;5083694;28;20032;-80
2021/11/12 10:08:45;;;;;;;65.03;27.02;;;9.10;99.90;;;;;;5083766;28;20027;-76
2021/11/12 10:11:25;;;;;;;58.28;29.08;;;9.00;99.90;;;;;;5083533;28;20529;-80
2021/11/12 10:13:59;;;;;;;64.88;29.30;;;9.00;99.90;;;;;;5098681;28;20104;-79
2021/11/12 10:16:35;;;;;;;;;;;9.10;99.90;;;;;;5098973;28;20508;-77
2021/11/12 10:19:12;;;;;;;63.35;29.23;;;9.10;99.90;;;;;;5096665;28;19942;-82
2021/11/12 10:21:42;;;;;;;71.95;31.45;;;9.10;99.90;;;;;;5099371;28;20024;-75
2021/11/12 10:24:22;;;;;;;66.57;29.73;;;9.10;99.90;;;;;;5101938;28;20028;-80
2021/11/12 10:26:51;;;;;;;64.90;29.17;;;9.10;99.90;;;;;;5082650;28;20513;-81
2021/11/12 10:29:24;;;;;;;62.55;27.92;;;9.20;99.90;;;;;;5099357;28;20020;-76
2021/11/12 10:31:52;;;;;;;59.55;27.85;;;9.30;99.90;;;;;;5096579;28;20032;-85
2021/11/12 10:34:21;;;;;;;62.13;28.40;;;9.40;99.90;;;;;;5081166;28;20016;-81
2021/11/12 10:36:55;;;;;;;60.45;26.90;;;9.50;99.90;;;;;;5081522;28;20107;-77
2021/11/12 10:39:32;;;;;;;54.58;27.60;;;9.50;99.90;;;;;;5096937;28;20028;-77
2021/11/12 10:42:12;;;;;;;62.88;27.60;;;9.50;99.90;;;;;;5082011;28;20023;-79
2021/11/12 10:44:53;;;;;;;52.47;24.60;;;9.60;99.90;;;;;;5084227;28;20020;-80
2021/11/12 10:47:23;;;;;;;49.88;25.08;;;9.60;99.90;;;;;;5088339;28;20067;-79
2021/11/12 10:49:50;;;;;;;48.13;25.17;;;9.70;99.90;;;;;;5103343;28;20020;-81
2021/11/12 10:52:19;;;;;;;48.10;25.63;;;9.70;99.90;;;;;;5083664;28;20387;-80
2021/11/12 10:54:53;;;;;;;49.65;23.52;;;9.50;99.90;;;;;;5083328;28;20012;-78
2021/11/12 10:57:38;;;;;;;46.00;24.42;;;9.50;99.90;;;;;;5097060;28;20168;-79
2021/11/12 11:00:05;;;;;;;41.75;21.13;;;9.40;99.90;;;;;;5097709;28;20020;-80
2021/11/12 11:02:35;;;;;;;44.08;22.13;;;9.40;99.90;;;;;;5098269;28;20023;-82
2021/11/12 11:05:10;;;;;;;38.60;21.75;;;9.40;99.90;;;;;;5099036;28;20017;-80
2021/11/12 11:07:35;;;;;;;44.60;22.23;;;9.30;99.90;;;;;;5080618;28;20028;-76
2021/11/12 11:10:02;;;;;;;39.30;20.63;;;9.20;99.90;;;;;;5065545;28;20043;-78
2021/11/12 11:12:32;;;;;;;42.15;21.95;;;9.20;99.90;;;;;;5081571;28;20058;-79
2021/11/12 11:15:15;;;;;;;39.30;20.45;;;9.20;99.90;;;;;;5081154;28;20055;-78
2021/11/12 11:17:44;;;;;;;38.78;19.35;;;9.20;99.90;;;;;;5080176;28;20024;-79
2021/11/12 11:20:18;;;;;;;40.88;18.90;;;9.20;99.90;;;;;;5079838;28;20051;-79
2021/11/12 11:22:56;;;;;;;40.30;20.63;;;9.20;99.90;;;;;;5093469;28;20016;-70
2021/11/12 11:25:24;;;;;;;36.10;21.63;;;9.30;99.90;;;;;;5060915;28;20048;-70
2021/11/12 11:27:50;;;;;;;33.38;18.60;;;9.20;99.90;;;;;;5075862;28;20068;-67
2021/11/12 11:30:16;;;;;;;34.85;19.10;;;9.20;99.90;;;;;;5059774;28;20115;-68
2021/11/12 11:32:45;;;;;;;36.47;19.40;;;9.20;99.90;;;;;;5092877;28;20024;-68
2021/11/12 11:35:11;;;;;;;35.38;19.25;;;9.20;99.90;;;;;;5093447;28;20031;-68
2021/11/12 11:37:38;;;;;;;35.38;19.80;;;9.10;99.90;;;;;;5059143;28;20032;-67
2021/11/12 11:40:05;;;;;;;36.38;19.70;;;9.10;99.90;;;;;;5092599;28;20389;-66
2021/11/12 11:42:31;;;;;;;36.47;19.10;;;9.20;99.90;;;;;;5092736;28;20028;-69
2021/11/12 11:44:57;;;;;;;34.20;18.13;;;9.20;99.90;;;;;;5075888;28;20035;-69
2021/11/12 11:47:23;;;;;;;39.55;19.38;;;9.20;99.90;;;;;;5075660;28;20390;-69
2021/11/12 11:49:53;;;;;;;36.60;20.65;;;9.20;99.90;;;;;;5093039;28;20028;-68
2021/11/12 11:52:26;;;;;;;39.28;20.25;;;9.20;99.90;;;;;;5092255;28;20028;-67
2021/11/12 11:54:52;;;;;;;36.70;20.03;;;9.30;99.90;;;;;;5076155;28;20028;-69
2021/11/12 11:57:20;;;;;;;33.08;19.80;;;9.30;99.90;;;;;;5092724;28;20285;-68
2021/11/12 11:59:47;;;;;;;42.20;20.02;;;9.40;99.90;;;;;;5092959;28;20047;-70
2021/11/12 12:02:17;;;;;;;39.70;21.33;;;9.40;99.90;;;;;;5081049;28;20024;-78
2021/11/12 12:05:00;;;;;;;34.42;18.95;;;9.40;99.90;;;;;;5099056;28;20043;-75
2021/11/12 12:07:39;;;;;;;44.88;19.77;;;9.30;99.90;;;;;;5081664;28;20032;-74
2021/11/12 12:10:16;;;;;;;43.75;20.92;;;9.30;99.90;;;;;;5097506;28;20050;-70
2021/11/12 12:12:45;;;;;;;46.78;21.98;;;9.30;99.90;;;;;;5097022;28;20100;-76
2021/11/12 12:15:12;;;;;;;44.45;22.35;;;9.30;99.90;;;;;;5095651;28;20120;-77
2021/11/12 12:17:46;;;;;;;45.97;22.67;;;9.40;99.90;;;;;;5095260;28;20031;-79
2021/11/12 12:20:38;;;;;;;43.00;21.92;;;9.40;99.90;;;;;;5079224;28;20031;-77
2021/11/12 13:20:27;;;;;;;33.28;19.95;;;9.10;99.90;;;;;;5089286;28;20031;-67
2021/11/12 13:25:34;;;;;;;37.08;18.30;;;9.10;99.90;;;;;;5095147;28;20403;-68
2021/11/12 13:28:10;;;;;;;34.65;19.73;;;9.10;99.90;;;;;;5094870;28;20032;-68
2021/11/12 13:30:37;;;;;;;31.77;17.75;;;9.10;99.90;;;;;;5096294;28;20378;-70
2021/11/12 13:33:03;;;;;;;31.58;18.48;;;9.10;99.90;;;;;;5078121;28;20458;-69
2021/11/12 13:35:34;;;;;;;33.05;18.45;;;9.10;99.90;;;;;;5094982;28;20115;-68
2021/11/12 13:38:01;;;;;;;35.88;19.92;;;9.20;99.90;;;;;;5094816;28;20462;-67
2021/11/12 13:40:32;;;;;;;32.20;17.63;;;9.20;99.90;;;;;;5077923;28;20016;-70
2021/11/12 13:42:58;;;;;;;28.42;16.92;;;9.20;99.90;;;;;;5078604;28;20020;-68
2021/11/12 13:45:27;;;;;;;31.80;17.20;;;9.20;99.90;;;;;;5094811;28;20031;-68
2021/11/12 13:48:13;;;;;;;32.80;17.55;;;9.30;99.90;;;;;;5094733;28;20025;-71
2021/11/12 13:50:52;;;;;;;29.20;16.45;;;9.40;99.90;;;;;;5094637;28;20103;-70
2021/11/12 13:53:17;;;;;;;33.78;18.52;;;9.50;99.90;;;;;;5094582;28;20024;-69
2021/11/12 13:55:45;;;;;;;27.27;15.85;;;9.60;99.90;;;;;;5094548;28;20020;-71
2021/11/12 13:58:11;;;;;;;30.42;17.13;;;9.70;99.90;;;;;;5095690;28;20012;-66
2021/11/12 14:00:37;;;;;;;30.52;17.40;;;9.80;99.90;;;;;;5094425;28;20081;-67
2021/11/12 14:03:11;;;;;;;30.10;17.00;;;9.80;99.90;;;;;;5077284;28;20016;-69
2021/11/12 14:05:39;;;;;;;32.17;17.65;;;9.80;99.90;;;;;;5077775;28;20123;-69
2021/11/12 14:08:11;;;;;;;27.08;16.35;;;9.80;99.90;;;;;;5094249;28;20119;-69
2021/11/12 14:10:49;;;;;;;33.42;16.55;;;9.80;99.90;;;;;;5099929;28;20068;-78
2021/11/12 14:13:17;;;;;;;23.73;14.90;;;9.80;99.90;;;;;;5098039;28;20016;-76
2021/11/12 14:16:22;;;;;;;26.40;15.45;;;9.90;99.90;;;;;;5079351;28;20050;-78
2021/11/12 14:26:52;;;;;;;23.80;14.45;;;9.80;99.90;;;;;;5095322;28;20059;-79
2021/11/12 14:35:23;;;;;;;23.13;14.60;;;9.80;99.90;;;;;;5095293;28;20056;-75
2021/11/12 14:44:27;;;;;;;28.77;15.57;;;9.60;99.90;;;;;;5095197;28;20030;-75
2021/11/12 14:54:30;;;;;;;29.42;13.52;;;9.50;99.90;;;;;;5096382;28;20036;-79
2021/11/12 14:56:58;;;;;;;28.45;15.90;;;9.70;99.90;;;;;;5098102;28;20012;-75
2021/11/12 14:59:24;;;;;;;28.88;15.45;;;9.70;99.90;;;;;;5062704;28;20035;-75
2021/11/12 15:01:50;;;;;;;26.45;15.10;;;9.70;99.90;;;;;;5094458;28;20020;-76
2021/11/12 15:04:17;;;;;;;25.50;14.32;;;9.60;99.90;;;;;;5077419;28;20474;-78
2021/11/12 15:06:43;;;;;;;28.63;15.32;;;9.70;99.90;;;;;;5077116;28;20031;-73
2021/11/12 15:09:26;;;;;;;24.20;13.27;;;9.70;99.90;;;;;;5077093;28;20078;-78
2021/11/12 15:11:52;;;;;;;22.67;13.77;;;9.80;99.90;;;;;;5080508;28;20103;-72
2021/11/12 15:14:24;;;;;;;21.05;13.07;;;9.70;99.90;;;;;;5093163;28;20417;-69
2021/11/12 15:16:50;;;;;;;22.88;13.63;;;9.80;99.90;;;;;;5092830;28;20455;-68
2021/11/12 15:19:18;;;;;;;20.50;13.63;;;9.80;99.90;;;;;;5075913;28;20123;-69
2021/11/12 15:24:33;;;;;;;23.20;14.05;;;9.80;99.90;;;;;;5093539;28;20040;-74
2021/11/12 15:32:30;;;;;;;23.38;13.43;;;10.10;99.90;;;;;;5093947;28;20043;-69
2021/11/12 15:35:03;;;;;;;24.65;12.55;;;10.20;99.90;;;;;;5092526;28;20042;-70
2021/11/12 15:37:38;;;;;;;22.67;12.20;;;10.20;99.90;;;;;;5076829;28;20028;-68
2021/11/12 15:45:12;;;;;;;26.77;14.52;;;10.30;99.90;;;;;;5092355;28;20429;-65
2021/11/12 15:47:57;;;;;;;20.60;12.70;;;10.30;99.90;;;;;;5091285;28;20127;-69
2021/11/12 15:51:22;;;;;;;18.13;11.70;;;10.30;99.90;;;;;;5092182;28;20367;-67
2021/11/12 15:53:14;;;;;;;26.67;13.23;;;10.30;99.90;;;;;;5071626;28;20127;-69
2021/11/12 16:14:42;;;;;;;21.35;12.05;;;10.20;99.90;;;;;;5092189;28;20024;-66
2021/11/12 16:19:43;;;;;;;20.83;13.27;;;10.00;99.90;;;;;;5093475;28;20043;-67
2021/11/12 16:25:18;;;;;;;;;;;10.10;99.90;;;;;;5093124;28;20119;-73
2021/11/12 16:27:39;;;;;;;17.13;10.52;;;10.10;99.90;;;;;;5090430;28;19916;-73
2021/11/12 16:30:07;;;;;;;17.30;10.75;;;10.10;99.90;;;;;;5093253;28;20107;-77
2021/11/12 16:32:48;;;;;;;16.75;9.95;;;10.10;99.90;;;;;;5093386;28;20020;-76
2021/11/12 16:35:17;;;;;;;16.30;9.13;;;10.10;99.90;;;;;;5094446;28;20107;-74
2021/11/12 16:37:45;;;;;;;21.83;10.82;;;10.10;99.90;;;;;;5094881;28;20027;-72
2021/11/12 16:42:51;;;;;;;15.88;9.70;;;10.10;99.90;;;;;;5094954;28;20032;-72
2021/11/12 16:55:20;;;;;;;16.58;9.27;;;10.10;99.90;;;;;;5094303;28;20474;-73
2021/11/12 17:04:06;;;;;;;12.50;8.00;;;10.00;99.90;;;;;;5064981;28;20039;-77
2021/11/12 17:46:31;;;;;;;14.25;7.13;;;10.20;99.90;;;;;;5098274;28;20513;-73
2021/11/12 18:01:34;;;;;;;14.45;7.75;;;10.30;99.90;;;;;;5097332;28;20122;-74
2021/11/12 18:02:26;;;;;;;13.80;7.28;;;10.30;99.90;;;;;;5095147;28;20043;-76
2021/11/12 18:07:32;;;;;;;17.73;8.25;;;10.40;99.90;;;;;;5096950;28;20173;-74
2021/11/12 21:45:46;;;;;;;21.92;10.80;;;10.00;99.90;;;;;;5096259;28;20151;-78
2021/11/12 21:48:12;;;;;;;23.27;11.50;;;10.10;99.90;;;;;;5095577;28;20032;-70
2021/11/12 21:50:38;;;;;;;24.50;11.57;;;10.00;99.90;;;;;;5096293;28;20028;-70
2021/11/12 21:53:05;;;;;;;19.13;10.52;;;10.00;99.90;;;;;;5061856;28;20046;-77
2021/11/12 21:55:32;;;;;;;22.25;12.13;;;10.00;99.90;;;;;;5097025;28;20035;-77
2021/11/12 21:57:58;;;;;;;15.88;10.90;;;10.00;99.90;;;;;;5079767;28;20559;-77
2021/11/12 22:00:25;;;;;;;20.17;11.18;;;10.00;99.90;;;;;;5096389;28;20040;-78
2021/11/12 22:02:50;;;;;;;22.58;11.95;;;9.90;99.90;;;;;;5061981;28;20020;-74
2021/11/12 22:05:16;;;;;;;24.77;12.20;;;10.00;99.90;;;;;;5096691;28;20077;-72
2021/11/12 22:07:42;;;;;;;19.92;11.93;;;10.00;99.90;;;;;;5098148;28;20502;-78
2021/11/12 22:10:08;;;;;;;20.08;12.20;;;10.00;99.90;;;;;;5098420;28;20107;-78
2021/11/12 22:12:34;;;;;;;19.60;11.95;;;10.00;99.90;;;;;;5097423;28;20078;-78
2021/11/12 22:15:00;;;;;;;25.40;12.13;;;10.10;99.90;;;;;;5095475;28;20363;-79
2021/11/12 22:17:25;;;;;;;23.80;11.70;;;10.00;99.90;;;;;;5095656;28;20031;-77
2021/11/12 22:19:51;;;;;;;19.52;10.63;;;10.10;99.90;;;;;;5062096;28;20444;-76
2021/11/12 22:22:17;;;;;;;22.48;12.25;;;10.10;99.90;;;;;;5096037;28;20035;-77
2021/11/12 22:24:43;;;;;;;26.00;12.45;;;10.10;99.90;;;;;;5094895;28;20044;-79
2021/11/12 22:27:09;;;;;;;26.45;11.80;;;10.10;99.90;;;;;;5076789;28;20133;-69
2021/11/12 22:29:34;;;;;;;16.33;11.35;;;10.20;99.90;;;;;;5093830;28;20379;-69
2021/11/12 22:32:01;;;;;;;16.00;10.98;;;10.20;99.90;;;;;;5076975;28;20030;-72
2021/11/12 22:34:27;;;;;;;21.83;11.70;;;10.20;99.90;;;;;;5077212;28;20121;-71
2021/11/12 22:36:52;;;;;;;24.08;11.98;;;10.20;99.90;;;;;;5094003;28;20064;-71
2021/11/12 22:39:19;;;;;;;19.40;11.98;;;10.30;99.90;;;;;;5076913;28;20025;-71
2021/11/12 22:41:45;;;;;;;24.38;13.73;;;10.20;99.90;;;;;;5093856;28;20479;-71
2021/11/12 22:44:11;;;;;;;22.00;12.90;;;10.30;99.90;;;;;;5094840;28;20025;-71
2021/11/12 22:46:37;;;;;;;22.77;12.02;;;10.30;99.90;;;;;;5095067;28;20421;-71